createdAt,value
2022-12-13T00:00:51.747Z,43.19
2022-12-13T00:01:51.825Z,43.30
2022-12-13T00:02:51.724Z,43.92
2022-12-13T00:03:51.820Z,44.98
2022-12-13T00:04:51.699Z,43.49
2022-12-13T00:05:51.686Z,43.92
2022-12-13T00:06:51.676Z,43.82
2022-12-13T00:07:51.745Z,42.54
2022-12-13T00:08:51.749Z,42.86
2022-12-13T00:09:51.642Z,42.33
2022-12-13T00:10:51.635Z,44.02
2022-12-13T00:11:51.619Z,44.77
2022-12-13T00:12:51.611Z,45.83
2022-12-13T00:13:51.600Z,45.51
2022-12-13T00:14:51.592Z,45.51
2022-12-13T00:15:51.576Z,46.15
2022-12-13T00:16:51.655Z,46.15
2022-12-13T00:17:51.555Z,44.79
2022-12-13T00:18:51.544Z,43.71
2022-12-13T00:19:51.536Z,43.82
2022-12-13T00:20:51.525Z,44.13
2022-12-13T00:21:51.512Z,44.13
2022-12-13T00:22:51.503Z,45.30
2022-12-13T00:23:51.494Z,45.83
2022-12-13T00:24:51.507Z,48.19
2022-12-13T00:25:51.466Z,49.35
2022-12-13T00:26:51.457Z,48.93
2022-12-13T00:27:51.447Z,49.67
2022-12-13T00:28:51.481Z,47.44
2022-12-13T00:29:51.429Z,47.02
2022-12-13T00:30:51.460Z,48.50
2022-12-13T00:32:06.717Z,46.17
2022-12-13T00:32:52.419Z,46.59
2022-12-13T00:33:51.382Z,50.20
2022-12-13T00:34:51.371Z,47.34
2022-12-13T00:35:51.357Z,45.21
2022-12-13T00:36:51.349Z,47.13
2022-12-13T00:37:51.338Z,47.76
2022-12-13T00:38:51.329Z,48.29
2022-12-13T00:39:51.314Z,46.49
2022-12-13T00:40:51.328Z,47.44
2022-12-13T00:41:51.294Z,49.80
2022-12-13T00:42:51.286Z,49.91
2022-12-13T00:43:51.270Z,51.29
2022-12-13T00:44:51.260Z,52.45
2022-12-13T00:45:51.290Z,50.86
2022-12-13T00:46:51.243Z,52.03
2022-12-13T00:47:51.231Z,51.50
2022-12-13T00:48:51.224Z,55.35
2022-12-13T00:49:51.209Z,54.71
2022-12-13T00:50:51.194Z,56.30
2022-12-13T00:51:51.188Z,56.33
2022-12-13T00:52:51.179Z,61.22
2022-12-13T00:53:51.168Z,59.41
2022-12-13T00:54:51.155Z,58.80
2022-12-13T00:55:51.145Z,58.16
2022-12-13T00:56:51.167Z,59.55
2022-12-13T00:57:51.123Z,60.71
2022-12-13T00:58:52.391Z,58.48
2022-12-13T00:59:51.103Z,61.35
2022-12-13T01:00:51.098Z,59.33
2022-12-13T01:01:51.202Z,58.91
2022-12-13T01:02:51.069Z,57.10
2022-12-13T01:03:51.061Z,56.78
2022-12-13T01:04:51.047Z,55.82
2022-12-13T01:06:14.089Z,55.40
2022-12-13T01:06:52.059Z,56.57
2022-12-13T01:07:51.078Z,56.04
2022-12-13T01:08:51.005Z,55.29
2022-12-13T01:09:50.996Z,58.91
2022-12-13T01:10:50.984Z,59.76
2022-12-13T01:11:50.975Z,61.88
2022-12-13T01:12:51.110Z,57.84
2022-12-13T01:13:50.957Z,56.35
2022-12-13T01:14:55.962Z,57.74
2022-12-13T01:15:50.934Z,59.65
2022-12-13T01:16:51.038Z,59.78
2022-12-13T01:17:50.914Z,56.67
2022-12-13T01:18:50.915Z,57.53
2022-12-13T01:19:50.891Z,59.76
2022-12-13T01:20:50.878Z,62.55
2022-12-13T01:21:50.871Z,62.23
2022-12-13T01:22:50.859Z,60.10
2022-12-13T01:23:50.854Z,59.47
2022-12-13T01:24:50.840Z,59.47
2022-12-13T01:25:50.828Z,56.81
2022-12-13T01:26:50.816Z,56.14
2022-12-13T01:27:50.809Z,54.44
2022-12-13T01:28:50.831Z,52.84
2022-12-13T01:29:50.790Z,53.03
2022-12-13T01:30:50.798Z,54.63
2022-12-13T01:31:50.765Z,56.86
2022-12-13T01:32:50.756Z,57.84
2022-12-13T01:33:50.745Z,57.53
2022-12-13T01:34:50.734Z,57.84
2022-12-13T01:35:50.725Z,59.86
2022-12-13T01:36:50.712Z,59.33
2022-12-13T01:37:50.704Z,57.53
2022-12-13T01:38:50.687Z,55.72
2022-12-13T01:39:50.683Z,55.29
2022-12-13T01:40:50.670Z,54.33
2022-12-13T01:41:50.658Z,54.84
2022-12-13T01:42:50.648Z,54.52
2022-12-13T01:43:50.639Z,56.33
2022-12-13T01:44:50.654Z,55.51
2022-12-13T01:45:50.693Z,55.05
2022-12-13T01:46:50.602Z,57.95
2022-12-13T01:47:50.595Z,61.67
2022-12-13T01:48:50.585Z,59.65
2022-12-13T01:49:50.574Z,60.53
2022-12-13T01:50:50.563Z,60.00
2022-12-13T01:51:50.555Z,57.12
2022-12-13T01:52:50.543Z,55.08
2022-12-13T01:53:50.532Z,54.33
2022-12-13T01:54:50.523Z,56.67
2022-12-13T01:55:50.510Z,57.10
2022-12-13T01:56:50.499Z,59.01
2022-12-13T01:57:50.492Z,59.86
2022-12-13T01:58:50.480Z,61.27
2022-12-13T01:59:50.472Z,61.17
2022-12-13T02:00:50.484Z,59.78
2022-12-13T02:01:50.447Z,54.55
2022-12-13T02:02:50.434Z,54.23
2022-12-13T02:03:50.426Z,56.99
2022-12-13T02:04:50.463Z,57.95
2022-12-13T02:05:50.404Z,56.99
2022-12-13T02:06:50.402Z,56.14
2022-12-13T02:07:50.483Z,56.67
2022-12-13T02:08:50.374Z,56.67
2022-12-13T02:09:50.363Z,56.04
2022-12-13T02:10:51.381Z,56.99
2022-12-13T02:11:50.351Z,56.25
2022-12-13T02:12:50.328Z,57.20
2022-12-13T02:13:50.319Z,57.53
2022-12-13T02:14:50.306Z,57.31
2022-12-13T02:15:50.369Z,55.82
2022-12-13T02:16:50.321Z,56.25
2022-12-13T02:17:50.278Z,51.23
2022-12-13T02:18:50.265Z,54.42
2022-12-13T02:19:50.256Z,53.67
2022-12-13T02:20:50.244Z,54.21
2022-12-13T02:21:50.236Z,53.67
2022-12-13T02:22:50.224Z,52.29
2022-12-13T02:23:50.217Z,51.23
2022-12-13T02:24:50.202Z,48.97
2022-12-13T02:25:50.192Z,50.14
2022-12-13T02:26:50.237Z,49.82
2022-12-13T02:27:50.218Z,48.33
2022-12-13T02:28:50.166Z,47.78
2022-12-13T02:29:50.153Z,46.72
2022-12-13T02:30:50.167Z,45.98
2022-12-13T02:31:50.130Z,46.72
2022-12-13T02:32:50.142Z,45.76
2022-12-13T02:33:50.110Z,45.75
2022-12-13T02:34:50.106Z,46.70
2022-12-13T02:35:52.853Z,46.49
2022-12-13T02:36:50.075Z,46.59
2022-12-13T02:37:50.070Z,46.49
2022-12-13T02:38:50.056Z,45.85
2022-12-13T02:39:50.043Z,46.06
2022-12-13T02:40:50.037Z,46.59
2022-12-13T02:41:50.025Z,47.34
2022-12-13T02:42:50.012Z,46.17
2022-12-13T02:43:50.002Z,46.17
2022-12-13T02:44:49.993Z,46.17
2022-12-13T02:45:49.983Z,45.75
2022-12-13T02:46:49.967Z,44.05
2022-12-13T02:47:49.961Z,44.35
2022-12-13T02:48:49.972Z,42.65
2022-12-13T02:49:49.938Z,43.39
2022-12-13T02:50:49.929Z,44.24
2022-12-13T02:51:49.916Z,43.29
2022-12-13T02:52:49.904Z,43.71
2022-12-13T02:53:49.893Z,41.69
2022-12-13T02:54:49.881Z,42.97
2022-12-13T02:55:49.871Z,43.60
2022-12-13T02:56:49.858Z,43.29
2022-12-13T02:57:49.849Z,43.29
2022-12-13T02:58:49.839Z,42.33
2022-12-13T02:59:52.602Z,41.78
2022-12-13T03:00:49.815Z,42.31
2022-12-13T03:01:49.962Z,43.16
2022-12-13T03:02:49.911Z,41.36
2022-12-13T03:03:49.848Z,42.31
2022-12-13T03:04:49.799Z,42.52
2022-12-13T03:05:49.761Z,42.74
2022-12-13T03:06:49.749Z,43.79
2022-12-13T03:07:49.829Z,43.59
2022-12-13T03:08:49.728Z,43.37
2022-12-13T03:09:49.722Z,43.37
2022-12-13T03:10:49.710Z,43.37
2022-12-13T03:11:49.699Z,44.01
2022-12-13T03:12:49.684Z,44.13
2022-12-13T03:13:49.673Z,44.67
2022-12-13T03:14:49.662Z,44.67
2022-12-13T03:15:49.724Z,44.02
2022-12-13T03:16:49.642Z,42.31
2022-12-13T03:17:49.629Z,41.89
2022-12-13T03:18:49.616Z,42.21
2022-12-13T03:19:49.611Z,41.67
2022-12-13T03:20:49.617Z,41.25
2022-12-13T03:21:49.588Z,41.14
2022-12-13T03:22:49.823Z,39.98
2022-12-13T03:23:49.565Z,39.45
2022-12-13T03:24:49.554Z,38.79
2022-12-13T03:25:49.545Z,41.02
2022-12-13T03:26:49.549Z,40.81
2022-12-13T03:27:49.523Z,40.38
2022-12-13T03:28:49.510Z,41.55
2022-12-13T03:29:49.501Z,42.10
2022-12-13T03:30:49.495Z,43.16
2022-12-13T03:31:49.478Z,45.49
2022-12-13T03:32:49.467Z,45.17
2022-12-13T03:33:49.465Z,45.28
2022-12-13T03:34:53.379Z,44.56
2022-12-13T03:35:50.463Z,44.12
2022-12-13T03:36:49.460Z,44.64
2022-12-13T03:37:49.418Z,45.40
2022-12-13T03:38:49.410Z,47.96
2022-12-13T03:39:49.401Z,48.38
2022-12-13T03:40:49.394Z,48.93
2022-12-13T03:41:49.372Z,51.90
2022-12-13T03:42:49.369Z,52.43
2022-12-13T03:43:49.348Z,52.45
2022-12-13T03:44:49.343Z,52.98
2022-12-13T03:45:49.326Z,53.41
2022-12-13T03:46:49.376Z,53.84
2022-12-13T03:47:49.304Z,50.33
2022-12-13T03:48:49.291Z,50.86
2022-12-13T03:49:54.324Z,48.63
2022-12-13T03:50:49.270Z,46.38
2022-12-13T03:51:49.262Z,44.47
2022-12-13T03:52:49.271Z,44.79
2022-12-13T03:53:49.245Z,43.18
2022-12-13T03:54:49.227Z,41.48
2022-12-13T03:55:49.216Z,40.19
2022-12-13T03:56:49.205Z,38.60
2022-12-13T03:57:49.195Z,37.52
2022-12-13T03:58:49.183Z,35.30
2022-12-13T03:59:49.173Z,37.31
2022-12-13T04:00:49.193Z,36.46
2022-12-13T04:01:49.169Z,36.76
2022-12-13T04:02:49.197Z,37.61
2022-12-13T04:03:49.146Z,36.87
2022-12-13T04:04:49.152Z,36.98
2022-12-13T04:05:49.134Z,35.81
2022-12-13T04:06:49.124Z,33.37
2022-12-13T04:07:49.130Z,33.47
2022-12-13T04:08:50.958Z,34.20
2022-12-13T04:09:49.092Z,33.25
2022-12-13T04:10:49.056Z,34.31
2022-12-13T04:11:49.047Z,33.78
2022-12-13T04:12:49.034Z,33.04
2022-12-13T04:13:49.025Z,30.49
2022-12-13T04:14:49.012Z,32.18
2022-12-13T04:15:49.223Z,32.39
2022-12-13T04:16:48.991Z,32.28
2022-12-13T04:17:51.259Z,31.86
2022-12-13T04:18:48.971Z,31.33
2022-12-13T04:19:48.987Z,31.33
2022-12-13T04:20:48.949Z,28.47
2022-12-13T04:21:48.936Z,29.52
2022-12-13T04:22:48.930Z,28.78
2022-12-13T04:23:48.917Z,29.83
2022-12-13T04:24:48.926Z,29.63
2022-12-13T04:25:48.921Z,27.72
2022-12-13T04:26:48.882Z,28.45
2022-12-13T04:27:48.874Z,28.34
2022-12-13T04:28:54.282Z,28.34
2022-12-13T04:29:48.853Z,28.34
2022-12-13T04:30:48.840Z,28.66
2022-12-13T04:31:48.870Z,27.92
2022-12-13T04:32:48.823Z,28.77
2022-12-13T04:33:48.812Z,28.34
2022-12-13T04:34:48.799Z,27.60
2022-12-13T04:35:48.788Z,27.39
2022-12-13T04:36:48.774Z,28.23
2022-12-13T04:37:48.766Z,26.97
2022-12-13T04:38:48.754Z,24.64
2022-12-13T04:39:48.752Z,26.64
2022-12-13T04:40:48.868Z,26.00
2022-12-13T04:41:48.728Z,25.16
2022-12-13T04:42:48.711Z,25.90
2022-12-13T04:43:48.708Z,25.48
2022-12-13T04:44:48.692Z,25.26
2022-12-13T04:45:48.749Z,25.68
2022-12-13T04:46:48.668Z,24.73
2022-12-13T04:47:48.666Z,25.90
2022-12-13T04:48:48.652Z,25.05
2022-12-13T04:49:48.638Z,25.79
2022-12-13T04:50:48.625Z,25.16
2022-12-13T04:51:48.618Z,24.52
2022-12-13T04:52:48.605Z,24.73
2022-12-13T04:53:48.595Z,24.09
2022-12-13T04:54:48.613Z,23.67
2022-12-13T04:55:49.628Z,24.19
2022-12-13T04:56:48.588Z,24.41
2022-12-13T04:57:48.555Z,24.19
2022-12-13T04:58:48.546Z,23.88
2022-12-13T04:59:48.533Z,24.19
2022-12-13T05:00:48.612Z,23.98
2022-12-13T05:01:48.513Z,23.77
2022-12-13T05:02:48.566Z,23.67
2022-12-13T05:03:48.488Z,24.19
2022-12-13T05:04:48.479Z,24.19
2022-12-13T05:05:48.465Z,23.24
2022-12-13T05:06:48.459Z,23.88
2022-12-13T05:07:48.499Z,23.46
2022-12-13T05:08:48.434Z,24.19
2022-12-13T05:09:48.442Z,23.46
2022-12-13T05:10:48.439Z,23.24
2022-12-13T05:11:48.401Z,21.75
2022-12-13T05:12:48.422Z,20.49
2022-12-13T05:13:48.381Z,20.38
2022-12-13T05:14:48.373Z,21.75
2022-12-13T05:15:53.600Z,22.07
2022-12-13T05:16:49.446Z,20.49
2022-12-13T05:17:48.337Z,22.17
2022-12-13T05:18:48.328Z,19.85
2022-12-13T05:19:48.318Z,21.32
2022-12-13T05:20:48.306Z,21.85
2022-12-13T05:21:48.297Z,21.22
2022-12-13T05:22:48.358Z,21.12
2022-12-13T05:23:48.273Z,20.27
2022-12-13T05:24:48.264Z,21.43
2022-12-13T05:25:48.253Z,21.22
2022-12-13T05:26:48.247Z,21.11
2022-12-13T05:27:48.230Z,20.48
2022-12-13T05:28:48.273Z,20.90
2022-12-13T05:29:48.209Z,20.90
2022-12-13T05:30:48.200Z,19.53
2022-12-13T05:31:48.255Z,19.74
2022-12-13T05:32:48.179Z,20.37
2022-12-13T05:33:48.166Z,18.26
2022-12-13T05:34:48.164Z,20.06
2022-12-13T05:35:48.148Z,17.10
2022-12-13T05:36:48.137Z,19.00
2022-12-13T05:37:48.122Z,18.57
2022-12-13T05:38:49.338Z,18.57
2022-12-13T05:39:48.102Z,18.99
2022-12-13T05:40:48.092Z,17.09
2022-12-13T05:41:48.079Z,17.09
2022-12-13T05:42:48.072Z,18.26
2022-12-13T05:43:48.060Z,16.99
2022-12-13T05:44:48.072Z,17.94
2022-12-13T05:45:48.045Z,18.15
2022-12-13T05:46:48.029Z,17.41
2022-12-13T05:47:48.018Z,18.04
2022-12-13T05:48:48.007Z,16.99
2022-12-13T05:49:47.995Z,16.45
2022-12-13T05:50:47.986Z,17.30
2022-12-13T05:51:47.976Z,17.30
2022-12-13T05:52:47.966Z,15.71
2022-12-13T05:53:53.088Z,17.40
2022-12-13T05:54:47.948Z,15.29
2022-12-13T05:55:47.939Z,16.56
2022-12-13T05:56:47.926Z,16.77
2022-12-13T05:57:50.976Z,16.56
2022-12-13T05:58:47.905Z,16.03
2022-12-13T05:59:47.892Z,16.03
2022-12-13T06:00:47.914Z,15.82
2022-12-13T06:01:47.868Z,15.08
2022-12-13T06:02:47.966Z,15.50
2022-12-13T06:03:47.967Z,15.19
2022-12-13T06:04:47.839Z,15.50
2022-12-13T06:05:47.830Z,15.19
2022-12-13T06:06:47.814Z,14.23
2022-12-13T06:07:52.132Z,13.28
2022-12-13T06:08:48.949Z,14.76
2022-12-13T06:09:47.785Z,13.07
2022-12-13T06:10:47.773Z,13.92
2022-12-13T06:11:47.768Z,13.07
2022-12-13T06:12:47.750Z,13.18
2022-12-13T06:13:47.742Z,12.76
2022-12-13T06:14:47.738Z,12.86
2022-12-13T06:15:47.719Z,12.86
2022-12-13T06:16:47.839Z,12.75
2022-12-13T06:17:47.695Z,12.64
2022-12-13T06:18:47.685Z,11.80
2022-12-13T06:19:47.674Z,11.91
2022-12-13T06:20:47.663Z,12.01
2022-12-13T06:21:47.650Z,11.06
2022-12-13T06:22:47.648Z,8.84
2022-12-13T06:23:47.628Z,9.37
2022-12-13T06:24:47.622Z,10.00
2022-12-13T06:25:51.648Z,10.11
2022-12-13T06:26:47.598Z,9.37
2022-12-13T06:27:47.784Z,10.00
2022-12-13T06:28:47.575Z,10.42
2022-12-13T06:29:47.565Z,10.42
2022-12-13T06:30:47.589Z,10.42
2022-12-13T06:31:47.540Z,10.42
2022-12-13T06:32:47.556Z,10.00
2022-12-13T06:33:47.520Z,9.06
2022-12-13T06:34:47.513Z,9.06
2022-12-13T06:35:47.497Z,10.85
2022-12-13T06:36:47.490Z,9.37
2022-12-13T06:37:47.475Z,10.00
2022-12-13T06:38:47.466Z,9.90
2022-12-13T06:39:47.457Z,10.00
2022-12-13T06:40:47.446Z,9.37
2022-12-13T06:41:47.433Z,10.42
2022-12-13T06:42:47.424Z,10.00
2022-12-13T06:43:47.414Z,10.22
2022-12-13T06:44:47.400Z,9.06
2022-12-13T06:45:47.466Z,9.48
2022-12-13T06:46:47.378Z,8.84
2022-12-13T06:47:47.377Z,9.47
2022-12-13T06:48:47.429Z,9.69
2022-12-13T06:49:47.390Z,9.48
2022-12-13T06:50:47.332Z,10.11
2022-12-13T06:51:47.320Z,9.48
2022-12-13T06:52:47.336Z,9.69
2022-12-13T06:53:47.299Z,9.48
2022-12-13T06:54:47.292Z,9.16
2022-12-13T06:55:47.479Z,10.00
2022-12-13T06:56:47.268Z,10.32
2022-12-13T06:57:47.262Z,10.00
2022-12-13T06:58:47.245Z,10.22
2022-12-13T06:59:47.237Z,10.22
2022-12-13T07:00:49.249Z,10.22
2022-12-13T07:01:50.590Z,8.95
2022-12-13T07:02:47.372Z,10.22
2022-12-13T07:03:47.211Z,9.79
2022-12-13T07:04:47.212Z,10.64
2022-12-13T07:05:47.166Z,10.42
2022-12-13T07:06:47.159Z,10.42
2022-12-13T07:07:47.146Z,10.64
2022-12-13T07:08:47.137Z,10.53
2022-12-13T07:09:47.124Z,10.11
2022-12-13T07:10:47.117Z,10.53
2022-12-13T07:11:51.920Z,10.74
2022-12-13T07:12:47.089Z,9.69
2022-12-13T07:13:47.083Z,10.74
2022-12-13T07:14:47.070Z,10.85
2022-12-13T07:15:47.135Z,10.22
2022-12-13T07:16:47.046Z,10.74
2022-12-13T07:17:47.036Z,11.69
2022-12-13T07:18:47.027Z,12.43
2022-12-13T07:19:47.619Z,13.17
2022-12-13T07:20:47.028Z,13.80
2022-12-13T07:21:46.995Z,13.38
2022-12-13T07:22:50.171Z,13.91
2022-12-13T07:23:46.968Z,13.28
2022-12-13T07:24:47.985Z,13.17
2022-12-13T07:25:46.947Z,14.33
2022-12-13T07:26:47.189Z,13.59
2022-12-13T07:27:46.926Z,13.49
2022-12-13T07:28:50.154Z,14.43
2022-12-13T07:29:48.032Z,15.28
2022-12-13T07:30:46.991Z,14.02
2022-12-13T07:31:46.882Z,15.39
2022-12-13T07:32:46.872Z,15.28
2022-12-13T07:33:46.862Z,15.92
2022-12-13T07:34:46.854Z,15.28
2022-12-13T07:35:46.839Z,15.18
2022-12-13T07:36:47.937Z,16.34
2022-12-13T07:37:46.818Z,14.65
2022-12-13T07:38:46.810Z,16.13
2022-12-13T07:39:46.796Z,16.76
2022-12-13T07:40:46.863Z,17.18
2022-12-13T07:41:46.780Z,15.28
2022-12-13T07:42:46.770Z,16.34
2022-12-13T07:43:46.754Z,17.18
2022-12-13T07:44:46.745Z,17.30
2022-12-13T07:45:46.732Z,14.97
2022-12-13T07:46:46.826Z,16.13
2022-12-13T07:47:46.711Z,15.28
2022-12-13T07:48:46.702Z,15.18
2022-12-13T07:49:46.688Z,15.70
2022-12-13T07:50:46.683Z,16.02
2022-12-13T07:51:47.694Z,15.60
2022-12-13T07:52:46.682Z,15.70
2022-12-13T07:53:46.645Z,16.76
2022-12-13T07:54:46.637Z,16.66
2022-12-13T07:55:46.626Z,16.97
2022-12-13T07:56:46.617Z,20.04
2022-12-13T07:57:46.603Z,19.82
2022-12-13T07:58:46.597Z,19.51
2022-12-13T07:59:46.582Z,19.20
2022-12-13T08:00:46.916Z,20.67
2022-12-13T08:01:46.635Z,20.25
2022-12-13T08:02:46.556Z,21.00
2022-12-13T08:03:46.556Z,19.42
2022-12-13T08:04:46.601Z,19.62
2022-12-13T08:05:46.564Z,18.98
2022-12-13T08:06:46.518Z,17.40
2022-12-13T08:07:46.505Z,17.19
2022-12-13T08:08:46.514Z,17.19
2022-12-13T08:09:52.476Z,17.40
2022-12-13T08:10:47.499Z,17.72
2022-12-13T08:11:46.465Z,17.93
2022-12-13T08:12:46.458Z,16.98
2022-12-13T08:13:46.437Z,15.70
2022-12-13T08:14:46.430Z,15.70
2022-12-13T08:15:46.537Z,14.76
2022-12-13T08:16:46.473Z,14.02
2022-12-13T08:17:46.397Z,14.65
2022-12-13T08:18:46.385Z,14.76
2022-12-13T08:19:46.373Z,14.76
2022-12-13T08:20:46.364Z,14.75
2022-12-13T08:21:55.592Z,14.86
2022-12-13T08:22:49.543Z,15.08
2022-12-13T08:23:46.339Z,14.97
2022-12-13T08:24:46.365Z,15.17
2022-12-13T08:25:46.311Z,14.86
2022-12-13T08:26:46.301Z,14.86
2022-12-13T08:27:46.287Z,14.64
2022-12-13T08:28:46.279Z,14.96
2022-12-13T08:29:46.264Z,14.96
2022-12-13T08:30:46.258Z,14.96
2022-12-13T08:31:46.290Z,14.75
2022-12-13T08:32:46.233Z,14.64
2022-12-13T08:33:46.241Z,14.12
2022-12-13T08:34:46.217Z,14.43
2022-12-13T08:35:46.200Z,14.22
2022-12-13T08:36:46.191Z,13.91
2022-12-13T08:37:46.179Z,14.33
2022-12-13T08:38:46.175Z,14.64
2022-12-13T08:39:46.157Z,14.22
2022-12-13T08:40:46.148Z,14.12
2022-12-13T08:41:46.135Z,13.70
2022-12-13T08:42:46.126Z,13.06
2022-12-13T08:43:46.114Z,12.96
2022-12-13T08:44:46.118Z,12.21
2022-12-13T08:45:46.093Z,12.21
2022-12-13T08:46:46.144Z,11.90
2022-12-13T08:47:46.068Z,11.79
2022-12-13T08:48:46.124Z,11.27
2022-12-13T08:49:46.050Z,11.58
2022-12-13T08:50:46.036Z,11.16
2022-12-13T08:51:46.024Z,11.37
2022-12-13T08:52:46.014Z,11.90
2022-12-13T08:53:46.006Z,12.32
2022-12-13T08:54:45.990Z,11.90
2022-12-13T08:55:45.979Z,11.48
2022-12-13T08:56:45.982Z,10.95
2022-12-13T08:57:45.964Z,10.63
2022-12-13T08:58:45.947Z,10.31
2022-12-13T08:59:45.938Z,10.00
2022-12-13T09:00:45.976Z,10.95
2022-12-13T09:01:45.929Z,10.21
2022-12-13T09:02:45.986Z,10.21
2022-12-13T09:03:45.917Z,10.53
2022-12-13T09:04:45.895Z,10.21
2022-12-13T09:05:45.874Z,10.11
2022-12-13T09:06:45.860Z,9.89
2022-12-13T09:07:45.849Z,9.79
2022-12-13T09:08:51.895Z,9.47
2022-12-13T09:09:46.865Z,9.26
2022-12-13T09:10:46.847Z,8.94
2022-12-13T09:11:45.803Z,8.42
2022-12-13T09:12:45.795Z,7.68
2022-12-13T09:13:45.788Z,7.89
2022-12-13T09:14:46.190Z,7.57
2022-12-13T09:15:46.450Z,7.36
2022-12-13T09:16:50.965Z,6.62
2022-12-13T09:17:45.777Z,7.26
2022-12-13T09:18:46.758Z,7.04
2022-12-13T09:19:46.800Z,6.41
2022-12-13T09:20:45.797Z,5.78
2022-12-13T09:21:45.697Z,5.46
2022-12-13T09:22:45.686Z,4.83
2022-12-13T09:23:46.443Z,5.88
2022-12-13T09:24:50.250Z,6.52
2022-12-13T09:25:52.618Z,5.26
2022-12-13T09:26:46.682Z,6.62
2022-12-13T09:27:45.634Z,5.46
2022-12-13T09:28:45.622Z,5.68
2022-12-13T09:29:45.613Z,5.99
2022-12-13T09:30:45.601Z,7.04
2022-12-13T09:31:51.123Z,7.35
2022-12-13T09:32:45.579Z,6.62
2022-12-13T09:33:45.566Z,9.05
2022-12-13T09:34:46.256Z,8.20
2022-12-13T09:35:45.571Z,6.73
2022-12-13T09:36:45.541Z,6.10
2022-12-13T09:37:46.161Z,4.83
2022-12-13T09:38:45.512Z,5.15
2022-12-13T09:39:45.512Z,4.10
2022-12-13T09:40:45.499Z,3.57
2022-12-13T09:41:45.481Z,1.57
2022-12-13T09:42:45.472Z,2.00
2022-12-13T09:43:45.837Z,1.78
2022-12-13T09:44:51.501Z,1.46
2022-12-13T09:45:45.616Z,2.10
2022-12-13T09:46:45.633Z,3.67
2022-12-13T09:47:46.855Z,4.20
2022-12-13T09:48:48.409Z,0.00
2022-12-13T09:49:51.921Z,0.00
2022-12-13T09:50:57.643Z,0.00
2022-12-13T09:51:54.116Z,0.00
2022-12-13T09:52:46.390Z,0.00
2022-12-13T09:53:45.352Z,0.00
2022-12-13T09:54:48.873Z,0.00
2022-12-13T09:55:45.328Z,0.00
2022-12-13T09:56:45.318Z,0.52
2022-12-13T09:57:45.306Z,1.89
2022-12-13T09:58:45.305Z,1.57
2022-12-13T09:59:45.289Z,0.31
2022-12-13T10:00:45.340Z,1.68
2022-12-13T10:01:45.284Z,0.63
2022-12-13T10:02:45.252Z,0.00
2022-12-13T10:03:45.243Z,0.00
2022-12-13T10:04:45.227Z,0.31
2022-12-13T10:05:45.224Z,1.05
2022-12-13T10:06:45.208Z,1.36
2022-12-13T10:07:45.224Z,0.00
2022-12-13T10:08:45.186Z,0.00
2022-12-13T10:09:45.181Z,0.00
2022-12-13T10:10:45.168Z,0.00
2022-12-13T10:11:50.275Z,0.00
2022-12-13T10:12:45.142Z,1.57
2022-12-13T10:13:45.133Z,0.31
2022-12-13T10:14:45.126Z,3.04
2022-12-13T10:15:45.120Z,3.36
2022-12-13T10:16:45.141Z,3.57
2022-12-13T10:17:48.614Z,4.30
2022-12-13T10:18:45.081Z,3.88
2022-12-13T10:19:45.072Z,2.52
2022-12-13T10:20:45.058Z,3.36
2022-12-13T10:21:45.057Z,1.57
2022-12-13T10:23:01.597Z,1.57
2022-12-13T10:24:23.130Z,0.21
2022-12-13T10:24:46.046Z,0.00
2022-12-13T10:25:45.072Z,0.00
2022-12-13T10:26:45.039Z,0.00
2022-12-13T10:27:44.985Z,0.00
2022-12-13T10:28:44.970Z,0.00
2022-12-13T10:29:44.964Z,0.00
2022-12-13T10:30:46.466Z,0.00
2022-12-13T10:31:44.981Z,0.00
2022-12-13T10:32:44.928Z,0.00
2022-12-13T10:33:44.923Z,0.00
2022-12-13T10:34:44.927Z,0.00
2022-12-13T10:35:44.896Z,0.00
2022-12-13T10:36:44.885Z,0.00
2022-12-13T10:37:44.891Z,0.00
2022-12-13T10:38:44.864Z,0.00
2022-12-13T10:39:45.343Z,0.00
2022-12-13T10:40:44.846Z,0.00
2022-12-13T10:41:44.833Z,0.00
2022-12-13T10:42:44.822Z,0.00
2022-12-13T10:43:44.812Z,0.00
2022-12-13T10:44:44.806Z,1.36
2022-12-13T10:45:44.834Z,0.00
2022-12-13T10:46:44.782Z,0.00
2022-12-13T10:47:44.778Z,0.00
2022-12-13T10:48:44.765Z,0.00
2022-12-13T10:49:44.767Z,0.00
2022-12-13T10:50:44.769Z,0.00
2022-12-13T10:51:44.729Z,0.00
2022-12-13T10:52:44.715Z,0.00
2022-12-13T10:53:47.104Z,0.00
2022-12-13T10:54:48.415Z,0.00
2022-12-13T10:55:44.710Z,0.00
2022-12-13T10:56:44.672Z,0.00
2022-12-13T10:57:44.663Z,0.00
2022-12-13T10:58:44.653Z,0.00
2022-12-13T10:59:44.646Z,0.00
2022-12-13T11:00:44.675Z,0.00
2022-12-13T11:01:44.690Z,0.00
2022-12-13T11:02:44.654Z,0.00
2022-12-13T11:03:44.598Z,0.00
2022-12-13T11:04:44.588Z,0.00
2022-12-13T11:05:44.583Z,0.00
2022-12-13T11:06:44.565Z,0.00
2022-12-13T11:07:44.555Z,0.00
2022-12-13T11:08:44.539Z,0.00
2022-12-13T11:09:44.548Z,0.00
2022-12-13T11:10:45.547Z,0.00
2022-12-13T11:11:44.539Z,0.00
2022-12-13T11:12:44.504Z,0.00
2022-12-13T11:13:44.497Z,0.00
2022-12-13T11:14:44.516Z,0.00
2022-12-13T11:15:44.476Z,0.00
2022-12-13T11:16:44.481Z,0.00
2022-12-13T11:17:44.444Z,0.00
2022-12-13T11:18:44.435Z,0.00
2022-12-13T11:19:44.575Z,0.00
2022-12-13T11:20:44.412Z,0.00
2022-12-13T11:21:44.403Z,0.00
2022-12-13T11:22:44.394Z,0.00
2022-12-13T11:23:44.378Z,0.00
2022-12-13T11:24:44.364Z,0.00
2022-12-13T11:25:44.371Z,0.00
2022-12-13T11:26:44.346Z,0.00
2022-12-13T11:27:44.363Z,0.00
2022-12-13T11:28:44.824Z,0.00
2022-12-13T11:29:44.339Z,0.00
2022-12-13T11:30:44.298Z,0.00
2022-12-13T11:31:44.327Z,0.00
2022-12-13T11:32:44.278Z,0.00
2022-12-13T11:33:48.434Z,0.00
2022-12-13T11:34:44.325Z,0.00
2022-12-13T11:35:44.241Z,0.00
2022-12-13T11:36:44.229Z,0.00
2022-12-13T11:37:44.220Z,0.00
2022-12-13T11:38:44.207Z,0.42
2022-12-13T11:39:44.241Z,0.42
2022-12-13T11:40:44.193Z,0.31
2022-12-13T11:41:44.173Z,0.63
2022-12-13T11:42:44.163Z,0.00
2022-12-13T11:43:44.191Z,0.00
2022-12-13T11:44:47.767Z,0.00
2022-12-13T11:45:44.204Z,0.00
2022-12-13T11:46:44.119Z,0.10
2022-12-13T11:47:44.111Z,0.10
2022-12-13T11:48:44.118Z,0.00
2022-12-13T11:49:44.086Z,0.94
2022-12-13T11:50:44.082Z,0.00
2022-12-13T11:51:44.164Z,1.15
2022-12-13T11:52:44.051Z,1.88
2022-12-13T11:53:44.040Z,3.56
2022-12-13T11:54:44.107Z,3.25
2022-12-13T11:55:44.020Z,6.92
2022-12-13T11:56:44.006Z,7.23
2022-12-13T11:57:44.011Z,6.18
2022-12-13T11:59:44.080Z,12.37
2022-12-13T12:00:43.966Z,8.18
2022-12-13T12:01:43.954Z,6.92
2022-12-13T12:02:44.007Z,6.60
2022-12-13T12:03:44.016Z,11.21
2022-12-13T12:04:43.921Z,6.92
2022-12-13T12:05:43.921Z,6.71
2022-12-13T12:06:43.898Z,8.07
2022-12-13T12:08:05.121Z,8.70
2022-12-13T12:08:45.246Z,6.18
2022-12-13T12:09:43.862Z,9.85
2022-12-13T12:10:49.354Z,8.91
2022-12-13T12:11:44.881Z,6.29
2022-12-13T12:12:43.829Z,5.02
2022-12-13T12:13:51.074Z,4.08
2022-12-13T12:14:44.837Z,4.71
2022-12-13T12:15:43.898Z,6.81
2022-12-13T12:16:43.785Z,4.92
2022-12-13T12:17:43.784Z,3.14
2022-12-13T12:18:43.764Z,4.50
2022-12-13T12:19:43.753Z,3.77
2022-12-13T12:20:43.794Z,6.81
2022-12-13T12:22:12.812Z,5.44
2022-12-13T12:22:44.770Z,3.45
2022-12-13T12:23:48.384Z,5.55
2022-12-13T12:24:44.726Z,5.44
2022-12-13T12:25:43.695Z,4.61
2022-12-13T12:26:43.689Z,4.08
2022-12-13T12:27:43.668Z,3.45
2022-12-13T12:28:44.146Z,2.83
2022-12-13T12:29:43.662Z,3.14
2022-12-13T12:30:43.673Z,3.97
2022-12-13T12:31:51.346Z,3.56
2022-12-13T12:32:44.659Z,4.60
2022-12-13T12:33:43.645Z,7.32
2022-12-13T12:34:43.603Z,5.44
2022-12-13T12:35:46.584Z,4.39
2022-12-13T12:36:43.565Z,3.97
2022-12-13T12:37:43.558Z,3.66
2022-12-13T12:38:43.541Z,4.08
2022-12-13T12:39:43.533Z,4.29
2022-12-13T12:41:15.162Z,4.60
2022-12-13T12:41:45.631Z,3.87
2022-12-13T12:43:13.272Z,3.56
2022-12-13T12:43:44.517Z,2.61
2022-12-13T12:44:43.475Z,1.98
2022-12-13T12:45:58.911Z,2.09
2022-12-13T12:47:08.815Z,1.98
2022-12-13T12:49:02.340Z,2.61
2022-12-13T12:49:44.442Z,1.15
2022-12-13T12:50:43.441Z,1.88
2022-12-13T12:51:43.407Z,4.81
2022-12-13T12:52:43.782Z,5.02
2022-12-13T12:53:43.382Z,5.65
2022-12-13T12:54:43.358Z,8.89
2022-12-13T12:55:43.349Z,14.23
2022-12-13T12:56:43.336Z,11.08
2022-12-13T12:57:43.324Z,12.03
2022-12-13T12:58:43.312Z,10.98
2022-12-13T12:59:43.303Z,12.24
2022-12-13T13:00:43.292Z,11.61
2022-12-13T13:01:44.204Z,12.76
2022-12-13T13:02:43.304Z,13.60